首页
METAR-TAF:

METAR-TAF

机场 :

Jacksonville Municipal Airport

杰克逊维尔, 伊利诺伊州, 美国

纬度: 39-46-27N, 经度: 090-14-19W, 海拔: 190米

当前天气观测

该预报发布于33分钟前的11:15 UTC
风速8节,风向西北
温度 17°C
湿度 94%
气压 1006 hPa
能見度: 16.1公里
阴天层高于1000英尺

METAR: KIJX 201115Z AUTO 31008KT 10SM OVC010 17/16 A2971 RMK AO2 T01680155

时间: 06:48 (11:48 UTC)


TAF: 丢失

超过4000个机场的气象观测和天气预报(METAR&TAF报告)。

可查询的气象台以黄色和红色小点在地图上表示。

将鼠标移到小点上方,可查看气象台名称。

然后点击查看天气观测和预报。

如需切换地图:点击带黑十字的绿色按钮放大地图;点击带横线的绿色按钮缩小地图;或者点击绿色箭头查看邻近地区的地图。


METAR-TAF: